sensor_id;sensor_type;location;lat;lon;timestamp;pressure;altitude;pressure_sealevel;temperature
56286;BMP180;42191;47.562;9.686;2022-12-07T00:01:56;96800.00;;;9.00
56286;BMP180;42191;47.562;9.686;2022-12-07T00:04:22;96812.00;;;9.00
56286;BMP180;42191;47.562;9.686;2022-12-07T00:06:51;96804.00;;;8.90
56286;BMP180;42191;47.562;9.686;2022-12-07T00:09:20;96800.00;;;8.90
56286;BMP180;42191;47.562;9.686;2022-12-07T00:11:49;96803.00;;;8.90
56286;BMP180;42191;47.562;9.686;2022-12-07T00:14:16;96812.00;;;8.90
56286;BMP180;42191;47.562;9.686;2022-12-07T00:16:44;96806.00;;;8.90
56286;BMP180;42191;47.562;9.686;2022-12-07T00:19:11;96804.00;;;8.90
56286;BMP180;42191;47.562;9.686;2022-12-07T00:21:38;96789.00;;;8.90
56286;BMP180;42191;47.562;9.686;2022-12-07T00:24:05;96787.00;;;8.90
56286;BMP180;42191;47.562;9.686;2022-12-07T00:26:34;96796.00;;;8.80
56286;BMP180;42191;47.562;9.686;2022-12-07T00:29:03;96799.00;;;8.80
56286;BMP180;42191;47.562;9.686;2022-12-07T00:31:32;96799.00;;;8.80
56286;BMP180;42191;47.562;9.686;2022-12-07T00:33:59;96791.00;;;8.70
56286;BMP180;42191;47.562;9.686;2022-12-07T00:36:26;96790.00;;;8.80
56286;BMP180;42191;47.562;9.686;2022-12-07T00:38:53;96787.00;;;8.80
56286;BMP180;42191;47.562;9.686;2022-12-07T00:41:22;96797.00;;;8.80
56286;BMP180;42191;47.562;9.686;2022-12-07T00:43:49;96782.00;;;8.80
56286;BMP180;42191;47.562;9.686;2022-12-07T00:46:16;96799.00;;;8.80
56286;BMP180;42191;47.562;9.686;2022-12-07T00:48:43;96799.00;;;8.80
56286;BMP180;42191;47.562;9.686;2022-12-07T00:51:11;96782.00;;;8.70
56286;BMP180;42191;47.562;9.686;2022-12-07T00:53:38;96790.00;;;8.80
56286;BMP180;42191;47.562;9.686;2022-12-07T00:56:09;96791.00;;;8.70
56286;BMP180;42191;47.562;9.686;2022-12-07T00:58:36;96789.00;;;8.70
56286;BMP180;42191;47.562;9.686;2022-12-07T01:01:04;96789.00;;;8.70
56286;BMP180;42191;47.562;9.686;2022-12-07T01:03:30;96799.00;;;8.70
56286;BMP180;42191;47.562;9.686;2022-12-07T01:05:57;96800.00;;;8.70
56286;BMP180;42191;47.562;9.686;2022-12-07T01:08:25;96803.00;;;8.70
56286;BMP180;42191;47.562;9.686;2022-12-07T01:10:59;96799.00;;;8.70
56286;BMP180;42191;47.562;9.686;2022-12-07T01:13:25;96799.00;;;8.70
56286;BMP180;42191;47.562;9.686;2022-12-07T01:15:51;96806.00;;;8.70
56286;BMP180;42191;47.562;9.686;2022-12-07T01:18:17;96798.00;;;8.70
56286;BMP180;42191;47.562;9.686;2022-12-07T01:20:44;96811.00;;;8.70
56286;BMP180;42191;47.562;9.686;2022-12-07T01:23:10;96813.00;;;8.70
56286;BMP180;42191;47.562;9.686;2022-12-07T01:25:36;96804.00;;;8.70
56286;BMP180;42191;47.562;9.686;2022-12-07T01:28:02;96813.00;;;8.70
56286;BMP180;42191;47.562;9.686;2022-12-07T01:30:28;96809.00;;;8.70
56286;BMP180;42191;47.562;9.686;2022-12-07T01:32:55;96821.00;;;8.70
56286;BMP180;42191;47.562;9.686;2022-12-07T01:35:21;96820.00;;;8.70
56286;BMP180;42191;47.562;9.686;2022-12-07T01:37:47;96814.00;;;8.80
56286;BMP180;42191;47.562;9.686;2022-12-07T01:40:13;96818.00;;;8.70
56286;BMP180;42191;47.562;9.686;2022-12-07T01:42:39;96820.00;;;8.80
56286;BMP180;42191;47.562;9.686;2022-12-07T01:47:57;96810.00;;;8.80
56286;BMP180;42191;47.562;9.686;2022-12-07T01:50:25;96809.00;;;8.80
56286;BMP180;42191;47.562;9.686;2022-12-07T01:52:54;96813.00;;;8.80
56286;BMP180;42191;47.562;9.686;2022-12-07T01:55:22;96811.00;;;8.80
56286;BMP180;42191;47.562;9.686;2022-12-07T01:57:50;96798.00;;;8.80
56286;BMP180;42191;47.562;9.686;2022-12-07T02:00:17;96803.00;;;8.70
56286;BMP180;42191;47.562;9.686;2022-12-07T02:03:05;96802.00;;;8.80
56286;BMP180;42191;47.562;9.686;2022-12-07T02:05:34;96795.00;;;8.70
56286;BMP180;42191;47.562;9.686;2022-12-07T02:08:01;96808.00;;;8.70
56286;BMP180;42191;47.562;9.686;2022-12-07T02:10:30;96810.00;;;8.70
56286;BMP180;42191;47.562;9.686;2022-12-07T02:13:13;96804.00;;;8.70
56286;BMP180;42191;47.562;9.686;2022-12-07T02:21:11;96801.00;;;8.60
56286;BMP180;42191;47.562;9.686;2022-12-07T02:24:53;96796.00;;;8.60
56286;BMP180;42191;47.562;9.686;2022-12-07T02:32:17;96789.00;;;8.50
56286;BMP180;42191;47.562;9.686;2022-12-07T02:40:33;96779.00;;;8.50
56286;BMP180;42191;47.562;9.686;2022-12-07T02:43:06;96778.00;;;8.50
56286;BMP180;42191;47.562;9.686;2022-12-07T02:45:36;96775.00;;;8.50
56286;BMP180;42191;47.562;9.686;2022-12-07T02:48:05;96786.00;;;8.50
56286;BMP180;42191;47.562;9.686;2022-12-07T02:50:32;96791.00;;;8.40
56286;BMP180;42191;47.562;9.686;2022-12-07T02:52:58;96791.00;;;8.50
56286;BMP180;42191;47.562;9.686;2022-12-07T02:55:37;96794.00;;;8.50
56286;BMP180;42191;47.562;9.686;2022-12-07T02:58:10;96779.00;;;8.50
56286;BMP180;42191;47.562;9.686;2022-12-07T03:00:51;96780.00;;;8.40
56286;BMP180;42191;47.562;9.686;2022-12-07T03:03:18;96798.00;;;8.40
56286;BMP180;42191;47.562;9.686;2022-12-07T03:11:40;96796.00;;;8.40
56286;BMP180;42191;47.562;9.686;2022-12-07T03:14:19;96797.00;;;8.40
56286;BMP180;42191;47.562;9.686;2022-12-07T03:16:55;96789.00;;;8.40
56286;BMP180;42191;47.562;9.686;2022-12-07T03:19:25;96786.00;;;8.40
56286;BMP180;42191;47.562;9.686;2022-12-07T03:21:57;96790.00;;;8.40
56286;BMP180;42191;47.562;9.686;2022-12-07T03:24:29;96790.00;;;8.40
56286;BMP180;42191;47.562;9.686;2022-12-07T03:27:09;96777.00;;;8.50
56286;BMP180;42191;47.562;9.686;2022-12-07T03:29:43;96779.00;;;8.40
56286;BMP180;42191;47.562;9.686;2022-12-07T03:32:25;96780.00;;;8.50
56286;BMP180;42191;47.562;9.686;2022-12-07T03:35:00;96782.00;;;8.50
56286;BMP180;42191;47.562;9.686;2022-12-07T03:37:56;96788.00;;;8.50
56286;BMP180;42191;47.562;9.686;2022-12-07T03:40:45;96789.00;;;8.50
56286;BMP180;42191;47.562;9.686;2022-12-07T03:43:12;96773.00;;;8.50
56286;BMP180;42191;47.562;9.686;2022-12-07T03:53:52;96770.00;;;8.60
56286;BMP180;42191;47.562;9.686;2022-12-07T03:56:21;96769.00;;;8.60
56286;BMP180;42191;47.562;9.686;2022-12-07T03:58:48;96762.00;;;8.60
56286;BMP180;42191;47.562;9.686;2022-12-07T04:01:14;96770.00;;;8.60
56286;BMP180;42191;47.562;9.686;2022-12-07T04:03:40;96769.00;;;8.60
56286;BMP180;42191;47.562;9.686;2022-12-07T04:06:06;96771.00;;;8.70
56286;BMP180;42191;47.562;9.686;2022-12-07T04:08:33;96787.00;;;8.70
56286;BMP180;42191;47.562;9.686;2022-12-07T04:10:59;96783.00;;;8.70
56286;BMP180;42191;47.562;9.686;2022-12-07T04:13:25;96783.00;;;8.70
56286;BMP180;42191;47.562;9.686;2022-12-07T04:15:51;96772.00;;;8.70
56286;BMP180;42191;47.562;9.686;2022-12-07T04:18:17;96780.00;;;8.70
56286;BMP180;42191;47.562;9.686;2022-12-07T04:20:45;96775.00;;;8.70
56286;BMP180;42191;47.562;9.686;2022-12-07T04:23:11;96781.00;;;8.70
56286;BMP180;42191;47.562;9.686;2022-12-07T04:25:37;96781.00;;;8.70
56286;BMP180;42191;47.562;9.686;2022-12-07T04:28:03;96794.00;;;8.70
56286;BMP180;42191;47.562;9.686;2022-12-07T04:30:29;96789.00;;;8.70
56286;BMP180;42191;47.562;9.686;2022-12-07T04:32:55;96784.00;;;8.70
56286;BMP180;42191;47.562;9.686;2022-12-07T04:35:22;96794.00;;;8.70
56286;BMP180;42191;47.562;9.686;2022-12-07T04:37:48;96789.00;;;8.70
56286;BMP180;42191;47.562;9.686;2022-12-07T04:40:14;96788.00;;;8.70
56286;BMP180;42191;47.562;9.686;2022-12-07T04:42:40;96790.00;;;8.70
56286;BMP180;42191;47.562;9.686;2022-12-07T04:45:07;96780.00;;;8.70
56286;BMP180;42191;47.562;9.686;2022-12-07T04:47:33;96790.00;;;8.60
56286;BMP180;42191;47.562;9.686;2022-12-07T04:49:59;96788.00;;;8.60
56286;BMP180;42191;47.562;9.686;2022-12-07T04:52:26;96781.00;;;8.60
56286;BMP180;42191;47.562;9.686;2022-12-07T04:54:52;96795.00;;;8.60
56286;BMP180;42191;47.562;9.686;2022-12-07T04:57:18;96790.00;;;8.60
56286;BMP180;42191;47.562;9.686;2022-12-07T04:59:44;96798.00;;;8.60
56286;BMP180;42191;47.562;9.686;2022-12-07T05:02:10;96794.00;;;8.60
56286;BMP180;42191;47.562;9.686;2022-12-07T05:04:36;96788.00;;;8.60
56286;BMP180;42191;47.562;9.686;2022-12-07T05:07:02;96793.00;;;8.50
56286;BMP180;42191;47.562;9.686;2022-12-07T05:09:28;96791.00;;;8.50
56286;BMP180;42191;47.562;9.686;2022-12-07T05:11:54;96788.00;;;8.50
56286;BMP180;42191;47.562;9.686;2022-12-07T05:14:21;96788.00;;;8.50
56286;BMP180;42191;47.562;9.686;2022-12-07T05:16:49;96789.00;;;8.50
56286;BMP180;42191;47.562;9.686;2022-12-07T05:19:16;96787.00;;;8.50
56286;BMP180;42191;47.562;9.686;2022-12-07T05:21:43;96786.00;;;8.50
56286;BMP180;42191;47.562;9.686;2022-12-07T05:24:12;96796.00;;;8.50
56286;BMP180;42191;47.562;9.686;2022-12-07T05:26:39;96783.00;;;8.40
56286;BMP180;42191;47.562;9.686;2022-12-07T05:29:05;96793.00;;;8.40
56286;BMP180;42191;47.562;9.686;2022-12-07T05:31:32;96783.00;;;8.40
56286;BMP180;42191;47.562;9.686;2022-12-07T05:33:58;96788.00;;;8.40
56286;BMP180;42191;47.562;9.686;2022-12-07T05:36:24;96798.00;;;8.40
56286;BMP180;42191;47.562;9.686;2022-12-07T05:38:50;96787.00;;;8.40
56286;BMP180;42191;47.562;9.686;2022-12-07T05:41:18;96789.00;;;8.40
56286;BMP180;42191;47.562;9.686;2022-12-07T05:44:04;96793.00;;;8.40
56286;BMP180;42191;47.562;9.686;2022-12-07T05:46:31;96801.00;;;8.40
56286;BMP180;42191;47.562;9.686;2022-12-07T05:48:57;96802.00;;;8.40
56286;BMP180;42191;47.562;9.686;2022-12-07T05:51:23;96797.00;;;8.40
56286;BMP180;42191;47.562;9.686;2022-12-07T05:53:49;96802.00;;;8.40
56286;BMP180;42191;47.562;9.686;2022-12-07T05:56:15;96788.00;;;8.40
56286;BMP180;42191;47.562;9.686;2022-12-07T05:58:41;96791.00;;;8.40
56286;BMP180;42191;47.562;9.686;2022-12-07T06:01:27;96800.00;;;8.30
56286;BMP180;42191;47.562;9.686;2022-12-07T06:03:53;96803.00;;;8.30
56286;BMP180;42191;47.562;9.686;2022-12-07T06:06:19;96806.00;;;8.30
56286;BMP180;42191;47.562;9.686;2022-12-07T06:08:52;96806.00;;;8.30
56286;BMP180;42191;47.562;9.686;2022-12-07T06:11:18;96806.00;;;8.30
56286;BMP180;42191;47.562;9.686;2022-12-07T06:14:03;96804.00;;;8.20
56286;BMP180;42191;47.562;9.686;2022-12-07T06:16:29;96807.00;;;8.20
56286;BMP180;42191;47.562;9.686;2022-12-07T06:18:55;96810.00;;;8.20
56286;BMP180;42191;47.562;9.686;2022-12-07T06:21:21;96805.00;;;8.20
56286;BMP180;42191;47.562;9.686;2022-12-07T06:23:47;96811.00;;;8.20
56286;BMP180;42191;47.562;9.686;2022-12-07T06:26:14;96812.00;;;8.20
56286;BMP180;42191;47.562;9.686;2022-12-07T06:28:40;96814.00;;;8.20
56286;BMP180;42191;47.562;9.686;2022-12-07T06:31:06;96815.00;;;8.20
56286;BMP180;42191;47.562;9.686;2022-12-07T06:33:33;96809.00;;;8.20
56286;BMP180;42191;47.562;9.686;2022-12-07T06:35:59;96818.00;;;8.20
56286;BMP180;42191;47.562;9.686;2022-12-07T06:38:25;96816.00;;;8.20
56286;BMP180;42191;47.562;9.686;2022-12-07T06:40:51;96823.00;;;8.10
56286;BMP180;42191;47.562;9.686;2022-12-07T06:43:17;96822.00;;;8.10
56286;BMP180;42191;47.562;9.686;2022-12-07T06:45:43;96815.00;;;8.10
56286;BMP180;42191;47.562;9.686;2022-12-07T06:48:10;96811.00;;;8.10
56286;BMP180;42191;47.562;9.686;2022-12-07T06:50:36;96806.00;;;8.10
56286;BMP180;42191;47.562;9.686;2022-12-07T06:53:02;96814.00;;;8.10
56286;BMP180;42191;47.562;9.686;2022-12-07T06:55:28;96817.00;;;8.10
56286;BMP180;42191;47.562;9.686;2022-12-07T06:57:54;96817.00;;;8.10
56286;BMP180;42191;47.562;9.686;2022-12-07T07:00:21;96812.00;;;8.10
56286;BMP180;42191;47.562;9.686;2022-12-07T07:02:47;96819.00;;;8.20
56286;BMP180;42191;47.562;9.686;2022-12-07T07:05:13;96825.00;;;8.10
56286;BMP180;42191;47.562;9.686;2022-12-07T07:07:39;96823.00;;;8.10
56286;BMP180;42191;47.562;9.686;2022-12-07T07:10:06;96829.00;;;8.10
56286;BMP180;42191;47.562;9.686;2022-12-07T07:12:32;96824.00;;;8.10
56286;BMP180;42191;47.562;9.686;2022-12-07T07:14:58;96827.00;;;8.10
56286;BMP180;42191;47.562;9.686;2022-12-07T07:17:25;96831.00;;;8.10
56286;BMP180;42191;47.562;9.686;2022-12-07T07:19:51;96823.00;;;8.10
56286;BMP180;42191;47.562;9.686;2022-12-07T07:22:17;96824.00;;;8.10
56286;BMP180;42191;47.562;9.686;2022-12-07T07:24:43;96814.00;;;8.10
56286;BMP180;42191;47.562;9.686;2022-12-07T07:27:09;96823.00;;;8.10
56286;BMP180;42191;47.562;9.686;2022-12-07T07:29:35;96813.00;;;8.10
56286;BMP180;42191;47.562;9.686;2022-12-07T07:32:02;96823.00;;;8.10
56286;BMP180;42191;47.562;9.686;2022-12-07T07:34:28;96834.00;;;8.10
56286;BMP180;42191;47.562;9.686;2022-12-07T07:36:54;96824.00;;;8.10
56286;BMP180;42191;47.562;9.686;2022-12-07T07:39:20;96831.00;;;8.10
56286;BMP180;42191;47.562;9.686;2022-12-07T07:41:46;96832.00;;;8.10
56286;BMP180;42191;47.562;9.686;2022-12-07T07:44:13;96835.00;;;8.10
56286;BMP180;42191;47.562;9.686;2022-12-07T07:46:39;96831.00;;;8.20
56286;BMP180;42191;47.562;9.686;2022-12-07T07:49:05;96833.00;;;8.20
56286;BMP180;42191;47.562;9.686;2022-12-07T07:51:31;96830.00;;;8.20
56286;BMP180;42191;47.562;9.686;2022-12-07T07:53:57;96832.00;;;8.20
56286;BMP180;42191;47.562;9.686;2022-12-07T07:56:23;96824.00;;;8.20
56286;BMP180;42191;47.562;9.686;2022-12-07T07:58:52;96837.00;;;8.20
56286;BMP180;42191;47.562;9.686;2022-12-07T08:01:19;96837.00;;;8.20
56286;BMP180;42191;47.562;9.686;2022-12-07T08:03:46;96841.00;;;8.20
56286;BMP180;42191;47.562;9.686;2022-12-07T08:06:12;96838.00;;;8.20
56286;BMP180;42191;47.562;9.686;2022-12-07T08:08:39;96833.00;;;8.20
56286;BMP180;42191;47.562;9.686;2022-12-07T08:11:06;96846.00;;;8.20
56286;BMP180;42191;47.562;9.686;2022-12-07T08:13:32;96832.00;;;8.20
56286;BMP180;42191;47.562;9.686;2022-12-07T08:15:59;96833.00;;;8.20
56286;BMP180;42191;47.562;9.686;2022-12-07T08:18:29;96837.00;;;8.20
56286;BMP180;42191;47.562;9.686;2022-12-07T08:21:00;96852.00;;;8.20
56286;BMP180;42191;47.562;9.686;2022-12-07T08:23:26;96844.00;;;8.20
56286;BMP180;42191;47.562;9.686;2022-12-07T08:25:53;96847.00;;;8.20
56286;BMP180;42191;47.562;9.686;2022-12-07T08:28:19;96842.00;;;8.20
56286;BMP180;42191;47.562;9.686;2022-12-07T08:30:45;96842.00;;;8.20
56286;BMP180;42191;47.562;9.686;2022-12-07T08:33:11;96847.00;;;8.20
56286;BMP180;42191;47.562;9.686;2022-12-07T08:35:37;96853.00;;;8.20
56286;BMP180;42191;47.562;9.686;2022-12-07T08:38:04;96849.00;;;8.20
56286;BMP180;42191;47.562;9.686;2022-12-07T08:40:30;96847.00;;;8.20
56286;BMP180;42191;47.562;9.686;2022-12-07T08:42:56;96846.00;;;8.30
56286;BMP180;42191;47.562;9.686;2022-12-07T08:45:23;96842.00;;;8.20
56286;BMP180;42191;47.562;9.686;2022-12-07T08:48:00;96850.00;;;8.30
56286;BMP180;42191;47.562;9.686;2022-12-07T08:50:28;96852.00;;;8.30
56286;BMP180;42191;47.562;9.686;2022-12-07T08:52:56;96847.00;;;8.30
56286;BMP180;42191;47.562;9.686;2022-12-07T08:55:23;96842.00;;;8.30
56286;BMP180;42191;47.562;9.686;2022-12-07T08:57:51;96845.00;;;8.30
56286;BMP180;42191;47.562;9.686;2022-12-07T09:00:18;96841.00;;;8.30
56286;BMP180;42191;47.562;9.686;2022-12-07T09:02:45;96841.00;;;8.30
56286;BMP180;42191;47.562;9.686;2022-12-07T09:05:12;96843.00;;;8.40
56286;BMP180;42191;47.562;9.686;2022-12-07T09:07:41;96861.00;;;8.40
56286;BMP180;42191;47.562;9.686;2022-12-07T09:10:08;96857.00;;;8.40
56286;BMP180;42191;47.562;9.686;2022-12-07T09:12:35;96853.00;;;8.40
56286;BMP180;42191;47.562;9.686;2022-12-07T09:15:01;96843.00;;;8.40
56286;BMP180;42191;47.562;9.686;2022-12-07T09:17:27;96855.00;;;8.40
56286;BMP180;42191;47.562;9.686;2022-12-07T09:19:53;96853.00;;;8.40
56286;BMP180;42191;47.562;9.686;2022-12-07T09:22:19;96857.00;;;8.40
56286;BMP180;42191;47.562;9.686;2022-12-07T09:24:46;96858.00;;;8.50
56286;BMP180;42191;47.562;9.686;2022-12-07T09:27:12;96857.00;;;8.50
56286;BMP180;42191;47.562;9.686;2022-12-07T09:29:39;96856.00;;;8.50
56286;BMP180;42191;47.562;9.686;2022-12-07T09:32:05;96853.00;;;8.50
56286;BMP180;42191;47.562;9.686;2022-12-07T09:34:31;96859.00;;;8.50
56286;BMP180;42191;47.562;9.686;2022-12-07T09:37:00;96864.00;;;8.50
56286;BMP180;42191;47.562;9.686;2022-12-07T09:39:26;96856.00;;;8.50
56286;BMP180;42191;47.562;9.686;2022-12-07T09:41:52;96861.00;;;8.50
56286;BMP180;42191;47.562;9.686;2022-12-07T09:44:24;96855.00;;;8.50
56286;BMP180;42191;47.562;9.686;2022-12-07T09:46:50;96863.00;;;8.50
56286;BMP180;42191;47.562;9.686;2022-12-07T09:49:21;96861.00;;;8.50
56286;BMP180;42191;47.562;9.686;2022-12-07T09:52:16;96860.00;;;8.50
56286;BMP180;42191;47.562;9.686;2022-12-07T09:54:47;96854.00;;;8.50
56286;BMP180;42191;47.562;9.686;2022-12-07T09:57:14;96856.00;;;8.60
56286;BMP180;42191;47.562;9.686;2022-12-07T09:59:41;96855.00;;;8.60
56286;BMP180;42191;47.562;9.686;2022-12-07T10:02:44;96855.00;;;8.50
56286;BMP180;42191;47.562;9.686;2022-12-07T10:07:51;96847.00;;;8.50
56286;BMP180;42191;47.562;9.686;2022-12-07T10:10:38;96823.00;;;8.50
56286;BMP180;42191;47.562;9.686;2022-12-07T10:13:11;96826.00;;;8.50
56286;BMP180;42191;47.562;9.686;2022-12-07T10:21:12;96808.00;;;8.50
56286;BMP180;42191;47.562;9.686;2022-12-07T10:23:41;96813.00;;;8.50
56286;BMP180;42191;47.562;9.686;2022-12-07T10:26:27;96816.00;;;8.50
56286;BMP180;42191;47.562;9.686;2022-12-07T10:28:55;96812.00;;;8.60
56286;BMP180;42191;47.562;9.686;2022-12-07T10:31:23;96808.00;;;8.60
56286;BMP180;42191;47.562;9.686;2022-12-07T10:33:50;96810.00;;;8.60
56286;BMP180;42191;47.562;9.686;2022-12-07T10:36:27;96812.00;;;8.60
56286;BMP180;42191;47.562;9.686;2022-12-07T10:39:21;96807.00;;;8.60
56286;BMP180;42191;47.562;9.686;2022-12-07T10:42:02;96799.00;;;8.60
56286;BMP180;42191;47.562;9.686;2022-12-07T10:44:31;96799.00;;;8.60
56286;BMP180;42191;47.562;9.686;2022-12-07T10:55:25;96783.00;;;8.60
56286;BMP180;42191;47.562;9.686;2022-12-07T11:01:13;96773.00;;;8.60
56286;BMP180;42191;47.562;9.686;2022-12-07T11:06:51;96774.00;;;8.60
56286;BMP180;42191;47.562;9.686;2022-12-07T11:15:49;96768.00;;;8.70
56286;BMP180;42191;47.562;9.686;2022-12-07T11:21:19;96765.00;;;8.70
56286;BMP180;42191;47.562;9.686;2022-12-07T11:23:49;96754.00;;;8.80
56286;BMP180;42191;47.562;9.686;2022-12-07T11:32:51;96754.00;;;8.90
56286;BMP180;42191;47.562;9.686;2022-12-07T11:38:22;96756.00;;;9.00
56286;BMP180;42191;47.562;9.686;2022-12-07T11:40:51;96743.00;;;9.00
56286;BMP180;42191;47.562;9.686;2022-12-07T11:43:28;96746.00;;;9.10
56286;BMP180;42191;47.562;9.686;2022-12-07T11:46:11;96728.00;;;9.10
56286;BMP180;42191;47.562;9.686;2022-12-07T11:48:40;96722.00;;;9.20
56286;BMP180;42191;47.562;9.686;2022-12-07T11:51:11;96730.00;;;9.20
56286;BMP180;42191;47.562;9.686;2022-12-07T11:53:46;96735.00;;;9.20
56286;BMP180;42191;47.562;9.686;2022-12-07T11:56:16;96730.00;;;9.30
56286;BMP180;42191;47.562;9.686;2022-12-07T11:59:02;96727.00;;;9.30
56286;BMP180;42191;47.562;9.686;2022-12-07T12:01:46;96719.00;;;9.30
56286;BMP180;42191;47.562;9.686;2022-12-07T12:05:02;96718.00;;;9.30
56286;BMP180;42191;47.562;9.686;2022-12-07T12:07:22;96712.00;;;9.30
56286;BMP180;42191;47.562;9.686;2022-12-07T12:09:55;96717.00;;;9.40
56286;BMP180;42191;47.562;9.686;2022-12-07T12:12:31;96708.00;;;9.40
56286;BMP180;42191;47.562;9.686;2022-12-07T12:20:26;96704.00;;;9.50
56286;BMP180;42191;47.562;9.686;2022-12-07T12:25:29;96700.00;;;9.50
56286;BMP180;42191;47.562;9.686;2022-12-07T12:27:59;96692.00;;;9.60
56286;BMP180;42191;47.562;9.686;2022-12-07T12:30:39;96687.00;;;9.60
56286;BMP180;42191;47.562;9.686;2022-12-07T12:33:29;96686.00;;;9.60
56286;BMP180;42191;47.562;9.686;2022-12-07T12:39:10;96676.00;;;9.70
56286;BMP180;42191;47.562;9.686;2022-12-07T12:47:02;96680.00;;;9.90
56286;BMP180;42191;47.562;9.686;2022-12-07T12:54:30;96688.00;;;10.10
56286;BMP180;42191;47.562;9.686;2022-12-07T13:02:37;96683.00;;;10.20
56286;BMP180;42191;47.562;9.686;2022-12-07T13:10:29;96680.00;;;10.20
56286;BMP180;42191;47.562;9.686;2022-12-07T13:15:44;96670.00;;;10.20
56286;BMP180;42191;47.562;9.686;2022-12-07T13:26:16;96654.00;;;10.20
56286;BMP180;42191;47.562;9.686;2022-12-07T13:34:01;96649.00;;;10.30
56286;BMP180;42191;47.562;9.686;2022-12-07T13:36:30;96657.00;;;10.30
56286;BMP180;42191;47.562;9.686;2022-12-07T13:39:16;96652.00;;;10.30
56286;BMP180;42191;47.562;9.686;2022-12-07T13:41:44;96645.00;;;10.30
56286;BMP180;42191;47.562;9.686;2022-12-07T13:44:13;96650.00;;;10.30
56286;BMP180;42191;47.562;9.686;2022-12-07T13:49:30;96643.00;;;10.30
56286;BMP180;42191;47.562;9.686;2022-12-07T13:55:26;96641.00;;;10.30
56286;BMP180;42191;47.562;9.686;2022-12-07T13:57:35;96635.00;;;10.20
56286;BMP180;42191;47.562;9.686;2022-12-07T14:00:04;96632.00;;;10.20
56286;BMP180;42191;47.562;9.686;2022-12-07T14:02:33;96633.00;;;10.20
56286;BMP180;42191;47.562;9.686;2022-12-07T14:05:22;96638.00;;;10.20
56286;BMP180;42191;47.562;9.686;2022-12-07T14:07:56;96631.00;;;10.20
56286;BMP180;42191;47.562;9.686;2022-12-07T14:10:31;96636.00;;;10.30
56286;BMP180;42191;47.562;9.686;2022-12-07T14:12:58;96632.00;;;10.20
56286;BMP180;42191;47.562;9.686;2022-12-07T14:15:32;96638.00;;;10.30
56286;BMP180;42191;47.562;9.686;2022-12-07T14:18:00;96644.00;;;10.30
56286;BMP180;42191;47.562;9.686;2022-12-07T14:22:56;96634.00;;;10.20
56286;BMP180;42191;47.562;9.686;2022-12-07T14:25:27;96638.00;;;10.30
56286;BMP180;42191;47.562;9.686;2022-12-07T14:27:57;96635.00;;;10.20
56286;BMP180;42191;47.562;9.686;2022-12-07T14:30:32;96626.00;;;10.20
56286;BMP180;42191;47.562;9.686;2022-12-07T14:33:04;96629.00;;;10.20
56286;BMP180;42191;47.562;9.686;2022-12-07T14:35:31;96626.00;;;10.20
56286;BMP180;42191;47.562;9.686;2022-12-07T14:37:57;96628.00;;;10.20
56286;BMP180;42191;47.562;9.686;2022-12-07T14:40:28;96629.00;;;10.20
56286;BMP180;42191;47.562;9.686;2022-12-07T14:43:01;96622.00;;;10.20
56286;BMP180;42191;47.562;9.686;2022-12-07T14:45:28;96627.00;;;10.20
56286;BMP180;42191;47.562;9.686;2022-12-07T14:47:54;96620.00;;;10.20
56286;BMP180;42191;47.562;9.686;2022-12-07T14:50:21;96626.00;;;10.20
56286;BMP180;42191;47.562;9.686;2022-12-07T14:52:56;96620.00;;;10.10
56286;BMP180;42191;47.562;9.686;2022-12-07T14:55:27;96614.00;;;10.10
56286;BMP180;42191;47.562;9.686;2022-12-07T14:57:53;96626.00;;;10.10
56286;BMP180;42191;47.562;9.686;2022-12-07T15:00:22;96630.00;;;10.00
56286;BMP180;42191;47.562;9.686;2022-12-07T15:02:49;96622.00;;;10.00
56286;BMP180;42191;47.562;9.686;2022-12-07T15:05:16;96621.00;;;10.00
56286;BMP180;42191;47.562;9.686;2022-12-07T15:07:42;96623.00;;;10.00
56286;BMP180;42191;47.562;9.686;2022-12-07T15:12:42;96617.00;;;10.00
56286;BMP180;42191;47.562;9.686;2022-12-07T15:15:08;96614.00;;;9.90
56286;BMP180;42191;47.562;9.686;2022-12-07T15:17:34;96617.00;;;9.90
56286;BMP180;42191;47.562;9.686;2022-12-07T15:20:01;96622.00;;;9.90
56286;BMP180;42191;47.562;9.686;2022-12-07T15:22:27;96619.00;;;9.90
56286;BMP180;42191;47.562;9.686;2022-12-07T15:24:53;96624.00;;;9.80
56286;BMP180;42191;47.562;9.686;2022-12-07T15:27:19;96622.00;;;9.80
56286;BMP180;42191;47.562;9.686;2022-12-07T15:29:45;96620.00;;;9.80
56286;BMP180;42191;47.562;9.686;2022-12-07T15:32:11;96619.00;;;9.80
56286;BMP180;42191;47.562;9.686;2022-12-07T15:34:38;96607.00;;;9.80
56286;BMP180;42191;47.562;9.686;2022-12-07T15:37:04;96617.00;;;9.70
56286;BMP180;42191;47.562;9.686;2022-12-07T15:39:30;96618.00;;;9.70
56286;BMP180;42191;47.562;9.686;2022-12-07T15:41:56;96613.00;;;9.70
56286;BMP180;42191;47.562;9.686;2022-12-07T15:44:22;96620.00;;;9.70
56286;BMP180;42191;47.562;9.686;2022-12-07T15:47:07;96610.00;;;9.60
56286;BMP180;42191;47.562;9.686;2022-12-07T15:49:34;96609.00;;;9.60
56286;BMP180;42191;47.562;9.686;2022-12-07T15:52:00;96606.00;;;9.50
56286;BMP180;42191;47.562;9.686;2022-12-07T15:54:28;96614.00;;;9.50
56286;BMP180;42191;47.562;9.686;2022-12-07T15:56:55;96620.00;;;9.40
56286;BMP180;42191;47.562;9.686;2022-12-07T15:59:21;96617.00;;;9.40
56286;BMP180;42191;47.562;9.686;2022-12-07T16:01:47;96607.00;;;9.40
56286;BMP180;42191;47.562;9.686;2022-12-07T16:04:14;96609.00;;;9.30
56286;BMP180;42191;47.562;9.686;2022-12-07T16:06:40;96613.00;;;9.30
56286;BMP180;42191;47.562;9.686;2022-12-07T16:09:07;96606.00;;;9.30
56286;BMP180;42191;47.562;9.686;2022-12-07T16:11:33;96600.00;;;9.30
56286;BMP180;42191;47.562;9.686;2022-12-07T16:13:59;96607.00;;;9.30
56286;BMP180;42191;47.562;9.686;2022-12-07T16:16:26;96600.00;;;9.30
56286;BMP180;42191;47.562;9.686;2022-12-07T16:18:53;96599.00;;;9.30
56286;BMP180;42191;47.562;9.686;2022-12-07T16:21:20;96603.00;;;9.30
56286;BMP180;42191;47.562;9.686;2022-12-07T16:23:47;96598.00;;;9.30
56286;BMP180;42191;47.562;9.686;2022-12-07T16:26:21;96596.00;;;9.30
56286;BMP180;42191;47.562;9.686;2022-12-07T16:28:51;96595.00;;;9.20
56286;BMP180;42191;47.562;9.686;2022-12-07T16:31:19;96592.00;;;9.20
56286;BMP180;42191;47.562;9.686;2022-12-07T16:33:46;96596.00;;;9.20
56286;BMP180;42191;47.562;9.686;2022-12-07T16:36:13;96591.00;;;9.20
56286;BMP180;42191;47.562;9.686;2022-12-07T16:38:42;96598.00;;;9.20
56286;BMP180;42191;47.562;9.686;2022-12-07T16:41:09;96588.00;;;9.20
56286;BMP180;42191;47.562;9.686;2022-12-07T16:43:36;96606.00;;;9.20
56286;BMP180;42191;47.562;9.686;2022-12-07T16:46:03;96585.00;;;9.20